Time;durP1;ratioP1;P1;durP2;ratioP2;P2;SDS_P1;SDS_P2;PMS_P1;PMS_P2;Temp;Humidity;BMP_temperature;BMP_pressure;BME280_temperature;BME280_humidity;BME280_pressure;Samples;Min_cycle;Max_cycle;Signal;HPM_P1;HPM_P2
2021/09/16 00:01:59;;;;;;;23.80;12.68;;;19.10;99.90;;;19.58;100.00;100542.44;5105533;28;20264;-72
2021/09/16 00:04:26;;;;;;;21.45;12.65;;;19.10;99.90;;;19.52;100.00;100546.44;5106827;27;20707;-70
2021/09/16 00:06:53;;;;;;;22.70;12.00;;;19.10;99.90;;;19.50;100.00;100545.69;5107108;28;20189;-70
2021/09/16 00:09:19;;;;;;;22.60;12.52;;;19.10;99.90;;;19.50;100.00;100544.84;5102792;28;20183;-71
2021/09/16 00:11:46;;;;;;;24.05;12.60;;;19.10;99.90;;;19.50;100.00;100542.19;5096594;28;20210;-71
2021/09/16 00:14:13;;;;;;;20.40;12.07;;;19.10;99.90;;;19.47;100.00;100545.09;5098679;28;20244;-70
2021/09/16 00:16:40;;;;;;;20.63;12.02;;;19.00;99.90;;;19.44;100.00;100546.16;5109992;28;20194;-69
2021/09/16 00:19:08;;;;;;;27.25;12.20;;;19.00;99.90;;;19.44;100.00;100554.13;5112336;28;20244;-70
2021/09/16 00:21:35;;;;;;;23.38;12.70;;;19.00;99.90;;;19.44;100.00;100550.63;5112052;28;20211;-71
2021/09/16 00:24:02;;;;;;;20.50;11.57;;;19.00;99.90;;;19.43;100.00;100554.25;5107012;28;20198;-71
2021/09/16 00:26:28;;;;;;;20.67;12.63;;;19.00;99.90;;;19.41;100.00;100546.41;5110180;28;20251;-71
2021/09/16 00:28:56;;;;;;;20.48;11.65;;;19.00;99.90;;;19.41;100.00;100551.69;5106727;28;20725;-72
2021/09/16 00:31:23;;;;;;;20.70;11.55;;;19.00;99.90;;;19.41;100.00;100554.34;5110646;28;20213;-71
2021/09/16 00:33:50;;;;;;;22.08;11.30;;;19.00;99.90;;;19.41;100.00;100554.34;5106658;28;20186;-72
2021/09/16 00:36:18;;;;;;;24.27;12.30;;;19.00;99.90;;;19.40;100.00;100551.81;5110944;28;20602;-71
2021/09/16 00:38:45;;;;;;;21.88;11.38;;;19.00;99.90;;;19.39;100.00;100556.28;5111653;28;20240;-71
2021/09/16 00:41:11;;;;;;;21.63;11.75;;;19.00;99.90;;;19.38;100.00;100553.75;5111574;28;20570;-71
2021/09/16 00:43:38;;;;;;;21.98;11.75;;;19.00;99.90;;;19.36;100.00;100556.53;5113141;28;20179;-72
2021/09/16 00:46:06;;;;;;;22.30;11.73;;;18.90;99.90;;;19.35;100.00;100557.50;5111300;28;20187;-71
2021/09/16 00:48:34;;;;;;;21.33;11.85;;;18.90;99.90;;;19.34;100.00;100557.63;5110093;28;20263;-71
2021/09/16 00:51:01;;;;;;;23.33;11.63;;;18.80;99.90;;;19.33;100.00;100562.06;5092521;28;20187;-71
2021/09/16 00:53:32;;;;;;;20.92;11.25;;;18.90;99.90;;;19.32;100.00;100565.69;5096426;28;20198;-71
2021/09/16 00:56:01;;;;;;;20.02;10.82;;;18.80;99.90;;;19.32;100.00;100565.69;5111633;28;20198;-72
2021/09/16 00:58:30;;;;;;;22.15;11.60;;;18.80;99.90;;;19.31;100.00;100579.91;5112899;28;20193;-71
2021/09/16 01:00:57;;;;;;;19.00;10.35;;;18.80;99.90;;;19.31;100.00;100581.72;5106629;28;20822;-70
2021/09/16 01:03:25;;;;;;;20.95;10.82;;;18.80;99.90;;;19.30;100.00;100582.69;5104157;28;20716;-69
2021/09/16 01:05:52;;;;;;;20.23;11.40;;;18.80;99.90;;;19.29;100.00;100584.47;5107517;28;20195;-69
2021/09/16 01:08:20;;;;;;;20.60;11.80;;;18.80;99.90;;;19.27;100.00;100578.44;5104973;28;20200;-70
2021/09/16 01:10:48;;;;;;;21.83;11.93;;;18.80;99.90;;;19.28;100.00;100574.81;5107623;28;20621;-70
2021/09/16 01:13:16;;;;;;;20.98;10.95;;;18.80;99.90;;;19.28;100.00;100576.59;5112389;28;20218;-71
2021/09/16 01:15:44;;;;;;;24.83;11.38;;;18.80;99.90;;;19.28;100.00;100576.59;5099446;28;20202;-70
2021/09/16 01:18:11;;;;;;;19.77;11.30;;;18.80;99.90;;;19.26;100.00;100576.72;5091569;28;20191;-70
2021/09/16 01:20:38;;;;;;;20.90;11.85;;;18.80;99.90;;;19.26;100.00;100576.72;5090041;28;20192;-71
2021/09/16 01:23:07;;;;;;;22.00;11.73;;;18.70;99.90;;;19.25;100.00;100577.69;5100263;28;20222;-71
2021/09/16 01:25:35;;;;;;;22.30;11.65;;;18.70;99.90;;;19.25;100.00;100590.13;5095731;28;20728;-71
2021/09/16 01:28:03;;;;;;;25.50;12.13;;;18.70;99.90;;;19.21;100.00;100584.19;5095280;28;20210;-68
2021/09/16 01:30:30;;;;;;;20.70;11.65;;;18.70;99.90;;;19.22;100.00;100595.66;5110859;27;20573;-69
2021/09/16 01:32:58;;;;;;;20.52;11.43;;;18.70;99.90;;;19.19;100.00;100599.38;5099186;28;20210;-68
2021/09/16 01:35:27;;;;;;;22.27;12.02;;;18.70;99.90;;;19.21;100.00;100593.94;5103615;28;20707;-71
2021/09/16 01:37:56;;;;;;;22.00;11.68;;;18.80;99.90;;;19.20;100.00;100598.44;5112347;28;20192;-71
2021/09/16 01:40:25;;;;;;;22.10;12.30;;;18.70;99.90;;;19.21;100.00;100602.78;5106745;28;20278;-71
2021/09/16 01:42:52;;;;;;;21.95;11.43;;;18.70;99.90;;;19.18;100.00;100594.19;5103419;28;20226;-72
2021/09/16 01:45:21;;;;;;;23.25;11.68;;;18.70;99.90;;;19.16;100.00;100596.97;5104018;28;20188;-72
2021/09/16 01:47:49;;;;;;;23.30;12.10;;;18.70;99.90;;;19.16;100.00;100601.41;5108140;28;20586;-71
2021/09/16 01:50:20;;;;;;;69.35;36.00;;;18.70;99.90;;;19.14;100.00;100600.72;5107922;28;20190;-71
2021/09/16 01:52:47;;;;;;;25.02;14.00;;;18.70;99.90;;;19.11;100.00;100604.41;5108837;28;20210;-71
2021/09/16 01:55:15;;;;;;;21.75;12.13;;;18.60;99.90;;;19.09;100.00;100602.84;5106983;28;20199;-71
2021/09/16 01:57:46;;;;;;;22.63;11.20;;;18.60;99.90;;;19.08;100.00;100603.78;5117584;28;20290;-70
2021/09/16 02:00:14;;;;;;;20.05;11.32;;;18.60;99.90;;;19.07;100.00;100607.44;5116418;28;20190;-71
2021/09/16 02:02:42;;;;;;;19.95;10.95;;;18.60;99.90;;;19.05;100.00;100617.28;5114906;28;20207;-72
2021/09/16 02:05:10;;;;;;;22.13;11.00;;;18.60;99.90;;;19.03;100.00;100616.56;5103452;28;20302;-72
2021/09/16 02:07:37;;;;;;;22.67;11.25;;;18.60;99.90;;;19.01;100.00;100621.97;5110084;28;20643;-72
2021/09/16 02:10:07;;;;;;;21.17;10.57;;;18.50;99.90;;;18.99;100.00;100625.72;5100546;28;20234;-71
2021/09/16 02:12:34;;;;;;;20.02;11.10;;;18.50;99.90;;;18.97;100.00;100622.31;5107057;28;20214;-72
2021/09/16 02:15:03;;;;;;;19.15;10.82;;;18.50;99.90;;;18.95;100.00;100619.78;5117397;28;20218;-72
2021/09/16 02:17:30;;;;;;;24.70;12.00;;;18.50;99.90;;;18.94;100.00;100619.91;5120498;28;20210;-71
2021/09/16 02:19:57;;;;;;;23.83;11.23;;;18.50;99.90;;;18.92;100.00;100622.69;5125848;28;20190;-70
2021/09/16 02:22:23;;;;;;;20.00;10.65;;;18.50;99.90;;;18.90;100.00;100618.44;5104542;28;20219;-71
2021/09/16 02:24:50;;;;;;;22.02;11.27;;;18.40;99.90;;;18.91;100.00;100620.97;5115690;28;20183;-71
2021/09/16 02:27:17;;;;;;;21.00;10.80;;;18.40;99.90;;;18.91;100.00;100622.75;5120592;28;20315;-72
2021/09/16 02:29:44;;;;;;;18.42;9.68;;;18.40;99.90;;;18.88;100.00;100621.19;5113148;28;20203;-70
2021/09/16 02:32:12;;;;;;;19.92;10.20;;;18.30;99.90;;;18.85;100.00;100624.06;5114521;28;20221;-70
2021/09/16 02:34:39;;;;;;;20.23;10.75;;;18.30;99.90;;;18.84;100.00;100632.97;5108300;28;20249;-69
2021/09/16 02:37:06;;;;;;;18.77;9.98;;;18.30;99.90;;;18.82;100.00;100632.25;5116245;28;20206;-71
2021/09/16 02:39:33;;;;;;;19.38;10.45;;;18.30;99.90;;;18.82;100.00;100634.91;5115999;27;20190;-71
2021/09/16 02:42:00;;;;;;;21.67;10.43;;;18.30;99.90;;;18.80;100.00;100634.19;5118048;28;20214;-71
2021/09/16 02:44:27;;;;;;;23.77;11.07;;;18.30;99.90;;;18.80;100.00;100635.97;5114492;28;20608;-71
2021/09/16 02:46:53;;;;;;;21.60;10.65;;;18.30;99.90;;;18.78;100.00;100636.09;5116336;28;20192;-71
2021/09/16 02:49:22;;;;;;;23.25;11.75;;;18.20;99.90;;;18.77;100.00;100637.06;5110368;28;20235;-71
2021/09/16 02:51:49;;;;;;;22.90;11.25;;;18.30;99.90;;;18.76;100.00;100635.34;5110473;28;20202;-72
2021/09/16 02:54:16;;;;;;;25.10;12.07;;;18.20;99.90;;;18.76;100.00;100640.66;5100600;28;20191;-71
2021/09/16 02:56:43;;;;;;;23.58;11.52;;;18.20;99.90;;;18.76;100.00;100645.94;5114464;28;20195;-71
2021/09/16 02:59:10;;;;;;;23.48;12.00;;;18.20;99.90;;;18.77;100.00;100643.19;5113591;28;20202;-70
2021/09/16 03:01:37;;;;;;;23.60;11.35;;;18.30;99.90;;;18.79;100.00;100652.84;5114202;28;20210;-72
2021/09/16 03:04:04;;;;;;;23.55;11.45;;;18.20;99.90;;;18.77;100.00;100642.38;5112033;28;20195;-71
2021/09/16 03:06:32;;;;;;;23.25;11.93;;;18.20;99.90;;;18.77;100.00;100647.66;5111703;28;20190;-71
2021/09/16 03:08:59;;;;;;;23.80;11.65;;;18.20;99.90;;;18.76;100.00;100643.31;5114494;28;20207;-71
2021/09/16 03:11:26;;;;;;;21.85;11.43;;;18.20;99.90;;;18.78;100.00;100654.66;5114426;28;20215;-70
2021/09/16 03:13:53;;;;;;;26.25;12.02;;;18.30;99.90;;;18.79;100.00;100651.03;5110183;27;20195;-70
2021/09/16 03:16:20;;;;;;;27.30;12.95;;;18.30;99.90;;;18.78;100.00;100644.03;5118106;28;20197;-71
2021/09/16 03:18:47;;;;;;;24.02;11.68;;;18.30;99.90;;;18.75;100.00;100644.28;5107020;28;20192;-71
2021/09/16 03:21:14;;;;;;;23.52;12.35;;;18.30;99.90;;;18.75;100.00;100644.28;5115400;28;20248;-71
2021/09/16 03:23:42;;;;;;;25.83;12.68;;;18.20;99.90;;;18.76;100.00;100651.25;5111034;28;20597;-69
2021/09/16 03:26:09;;;;;;;24.90;13.13;;;18.30;99.90;;;18.77;100.00;100652.13;5109800;28;20265;-71
2021/09/16 03:28:39;;;;;;;24.23;12.10;;;18.20;99.90;;;18.78;100.00;100652.00;5114641;28;20207;-72
2021/09/16 03:31:07;;;;;;;29.15;13.60;;;18.30;99.90;;;18.77;100.00;100653.78;5104754;28;20191;-72
2021/09/16 03:33:35;;;;;;;25.77;13.20;;;18.20;99.90;;;18.77;100.00;100655.63;5100612;28;20187;-71
2021/09/16 03:36:02;;;;;;;23.90;13.02;;;18.30;99.90;;;18.77;100.00;100648.50;5111364;28;20545;-72
2021/09/16 03:38:29;;;;;;;28.60;13.35;;;18.30;99.90;;;18.80;100.00;100651.88;5110782;28;20203;-72
2021/09/16 03:40:57;;;;;;;30.00;13.88;;;18.30;99.90;;;18.79;100.00;100659.00;5113499;28;20187;-69
2021/09/16 03:43:24;;;;;;;31.02;14.35;;;18.30;99.90;;;18.80;100.00;100662.50;5106213;28;21140;-72
2021/09/16 03:45:50;;;;;;;30.15;15.32;;;18.30;99.90;;;18.79;100.00;100659.00;5108754;28;20183;-71
2021/09/16 03:48:19;;;;;;;35.95;16.02;;;18.30;99.90;;;18.77;100.00;100657.41;5114897;28;20287;-71
2021/09/16 03:50:46;;;;;;;34.10;16.00;;;18.20;99.90;;;18.74;100.00;100663.78;5117632;28;20194;-72
2021/09/16 03:53:13;;;;;;;35.00;17.98;;;18.20;99.90;;;18.72;100.00;100665.72;5112726;28;20218;-72
2021/09/16 03:55:40;;;;;;;33.80;17.25;;;18.20;99.90;;;18.71;100.00;100669.31;5115025;28;20187;-70
2021/09/16 03:58:09;;;;;;;33.20;16.25;;;18.20;99.90;;;18.71;100.00;100666.66;5106971;28;20191;-72
2021/09/16 04:00:35;;;;;;;35.70;17.42;;;18.20;99.90;;;18.72;100.00;100671.03;5100936;28;20192;-72
2021/09/16 04:03:09;;;;;;;31.52;16.65;;;18.20;99.90;;;18.72;100.00;100673.66;5100805;28;20219;-73
2021/09/16 04:05:38;;;;;;;37.28;17.13;;;18.10;99.90;;;18.70;100.00;100667.63;5103061;28;20233;-72
2021/09/16 04:08:06;;;;;;;35.65;17.58;;;18.20;99.90;;;18.68;100.00;100674.84;5109617;27;20217;-71
2021/09/16 04:10:33;;;;;;;34.92;17.83;;;18.10;99.90;;;18.68;100.00;100674.84;5111243;28;20588;-70
2021/09/16 04:13:00;;;;;;;36.45;17.30;;;18.10;99.90;;;18.65;100.00;100665.28;5106261;28;20207;-70
2021/09/16 04:15:28;;;;;;;40.72;17.80;;;18.10;99.90;;;18.59;100.00;100664.88;5097050;28;20679;-71
2021/09/16 04:17:55;;;;;;;35.67;17.40;;;18.10;99.90;;;18.61;100.00;100665.63;5108972;28;20199;-71
2021/09/16 04:20:22;;;;;;;38.85;19.15;;;18.00;99.90;;;18.58;100.00;100668.50;5112464;28;20604;-71
2021/09/16 04:22:49;;;;;;;35.17;18.48;;;18.00;99.90;;;18.56;100.00;100673.06;5109880;27;20230;-71
2021/09/16 04:25:16;;;;;;;39.22;18.10;;;17.90;99.90;;;18.53;100.00;100681.22;5108095;28;20717;-71
2021/09/16 04:27:43;;;;;;;41.53;19.90;;;17.90;99.90;;;18.50;100.00;100684.09;5101005;28;20191;-71
2021/09/16 04:30:11;;;;;;;39.72;18.45;;;17.90;99.90;;;18.50;100.00;100686.75;5106970;28;20221;-71
2021/09/16 04:32:39;;;;;;;38.55;18.92;;;17.90;99.90;;;18.49;100.00;100685.03;5112964;27;20213;-72
2021/09/16 04:35:08;;;;;;;40.35;19.23;;;17.90;99.90;;;18.48;100.00;100689.53;5108723;28;20694;-72
2021/09/16 04:37:35;;;;;;;38.05;17.73;;;17.90;99.90;;;18.47;100.00;100693.09;5104803;28;20562;-71
2021/09/16 04:40:03;;;;;;;37.28;18.15;;;17.80;99.90;;;18.46;100.00;100691.41;5101888;27;20202;-71
2021/09/16 04:42:30;;;;;;;40.42;19.58;;;17.80;99.90;;;18.47;100.00;100692.28;5105459;28;20210;-72
2021/09/16 04:44:57;;;;;;;37.75;17.85;;;17.80;99.90;;;18.48;100.00;100692.16;5110428;28;20198;-71
2021/09/16 04:47:24;;;;;;;34.78;18.17;;;17.80;99.90;;;18.47;100.00;100695.75;5110349;28;20195;-71
2021/09/16 04:49:52;;;;;;;36.45;17.58;;;17.80;99.90;;;18.47;100.00;100695.75;5110220;28;20207;-69
2021/09/16 04:52:19;;;;;;;38.97;16.50;;;17.80;99.90;;;18.50;100.00;100700.84;5112830;28;20221;-71
2021/09/16 04:54:45;;;;;;;33.47;16.23;;;17.80;99.90;;;18.51;100.00;100699.03;5101331;27;20240;-71
2021/09/16 04:57:12;;;;;;;36.55;17.40;;;17.80;99.90;;;18.53;100.00;100700.66;5110352;28;20202;-71
2021/09/16 04:59:39;;;;;;;33.78;16.88;;;17.80;99.90;;;18.54;100.00;100701.47;5104602;28;20215;-71
2021/09/16 05:02:05;;;;;;;34.38;16.58;;;17.80;99.90;;;18.53;100.00;100698.00;5100387;28;20215;-71
2021/09/16 05:04:32;;;;;;;32.25;16.00;;;17.80;99.90;;;18.53;100.00;100715.69;5109953;28;20236;-72
2021/09/16 05:07:00;;;;;;;29.67;15.13;;;17.80;99.90;;;18.53;100.00;100707.75;5112730;28;20191;-69
2021/09/16 05:09:27;;;;;;;33.00;16.90;;;17.80;99.90;;;18.54;100.00;100714.72;5105532;27;20721;-69
2021/09/16 05:11:54;;;;;;;31.30;15.82;;;17.80;99.90;;;18.53;100.00;100718.34;5110983;28;20239;-71
2021/09/16 05:14:21;;;;;;;29.02;14.93;;;17.80;99.90;;;18.53;100.00;100707.75;5107630;28;20195;-71
2021/09/16 05:16:47;;;;;;;30.15;14.45;;;17.80;99.90;;;18.53;100.00;100727.16;5107189;28;20547;-71
2021/09/16 05:19:14;;;;;;;29.88;14.85;;;17.80;99.90;;;18.54;100.00;100717.38;5106558;28;20183;-71
2021/09/16 05:21:41;;;;;;;28.30;14.07;;;17.70;99.90;;;18.54;100.00;100722.69;5104485;27;20215;-71
2021/09/16 05:24:09;;;;;;;28.52;14.25;;;17.80;99.90;;;18.53;100.00;100723.66;5112253;28;20199;-71
2021/09/16 05:26:36;;;;;;;29.15;13.50;;;17.80;99.90;;;18.53;100.00;100723.66;5111276;28;20229;-72
2021/09/16 05:29:03;;;;;;;24.50;12.10;;;17.70;99.90;;;18.52;100.00;100727.25;5116752;28;20714;-71
2021/09/16 05:31:30;;;;;;;22.67;12.45;;;17.70;99.90;;;18.50;100.00;100735.28;5090164;28;20226;-72
2021/09/16 05:33:56;;;;;;;23.45;11.20;;;17.70;99.90;;;18.48;100.00;100725.78;5098210;28;20191;-71
2021/09/16 05:36:23;;;;;;;21.45;10.93;;;17.70;99.90;;;18.46;100.00;100725.03;5109711;28;20205;-72
2021/09/16 05:38:50;;;;;;;22.48;11.00;;;17.70;99.90;;;18.47;100.00;100734.69;5109402;28;20195;-72
2021/09/16 05:41:18;;;;;;;20.20;10.88;;;17.70;99.90;;;18.45;99.85;100736.59;5110660;28;20213;-70
2021/09/16 05:43:45;;;;;;;21.02;10.32;;;17.70;99.90;;;18.43;99.48;100734.06;5106407;27;20194;-71
2021/09/16 05:46:11;;;;;;;18.92;10.02;;;17.70;99.90;;;18.42;99.38;100732.34;5101214;28;20191;-71
2021/09/16 05:48:38;;;;;;;19.92;10.25;;;17.70;99.90;;;18.41;99.22;100743.91;5107346;28;20197;-70
2021/09/16 05:51:05;;;;;;;19.80;8.73;;;17.70;99.90;;;18.39;98.84;100740.50;5110479;28;20186;-71
2021/09/16 05:53:32;;;;;;;19.00;8.35;;;17.70;99.90;;;18.37;98.57;100750.34;5106189;28;20201;-71
2021/09/16 05:55:59;;;;;;;17.48;8.75;;;17.60;99.90;;;18.36;98.32;100746.00;5106303;28;20682;-71
2021/09/16 05:58:27;;;;;;;18.30;9.73;;;17.70;99.90;;;18.37;98.23;100749.50;5101193;28;20240;-71
2021/09/16 06:00:54;;;;;;;18.70;9.13;;;17.70;99.90;;;18.35;98.16;100754.06;5107828;28;20201;-72
2021/09/16 06:03:20;;;;;;;19.45;9.95;;;17.70;99.90;;;18.36;97.76;100753.09;5104723;28;20207;-72
2021/09/16 06:05:47;;;;;;;18.27;9.82;;;17.70;99.90;;;18.36;98.07;100755.75;5096456;28;20203;-72
2021/09/16 06:08:14;;;;;;;21.02;9.52;;;17.70;99.90;;;18.36;97.50;100759.25;5093874;28;20333;-71
2021/09/16 06:10:40;;;;;;;18.15;9.68;;;17.80;99.90;;;18.34;97.81;100760.28;5101327;28;20215;-71
2021/09/16 06:13:07;;;;;;;17.35;8.82;;;17.70;99.90;;;18.32;97.39;100762.22;5104527;28;20241;-72
2021/09/16 06:15:35;;;;;;;17.42;8.45;;;17.70;99.90;;;18.30;97.47;100770.25;5102744;28;20240;-72
2021/09/16 06:18:02;;;;;;;17.17;8.38;;;17.80;99.90;;;18.28;97.21;100766.03;5092464;28;20194;-71
2021/09/16 06:20:29;;;;;;;19.02;8.32;;;17.80;99.90;;;18.25;96.92;100761.78;5102439;28;20194;-72
2021/09/16 06:22:56;;;;;;;16.45;8.32;;;17.70;99.90;;;18.24;96.59;100764.53;5100207;28;20699;-72
2021/09/16 06:25:23;;;;;;;21.27;8.32;;;17.80;99.90;;;18.28;96.78;100772.19;5103883;28;20191;-71
2021/09/16 06:27:50;;;;;;;16.50;7.95;;;17.80;99.90;;;18.32;96.79;100764.88;5099092;28;20192;-71
2021/09/16 06:30:17;;;;;;;15.15;8.00;;;17.80;99.90;;;18.34;96.38;100768.25;5097420;28;20726;-70
2021/09/16 06:32:47;;;;;;;16.73;7.40;;;17.80;99.90;;;18.39;96.43;100769.66;5110582;27;20210;-71
2021/09/16 06:35:15;;;;;;;14.48;7.38;;;17.90;99.90;;;18.45;96.22;100771.88;5095871;28;20180;-71
2021/09/16 06:37:42;;;;;;;16.98;7.88;;;17.90;99.90;;;18.48;95.68;100778.78;5102564;28;20240;-71
2021/09/16 06:40:11;;;;;;;15.48;7.35;;;18.00;99.90;;;18.47;95.56;100782.41;5099215;28;20720;-70
2021/09/16 06:42:38;;;;;;;16.90;7.35;;;18.00;99.90;;;18.45;95.07;100781.66;5092765;28;20207;-69
2021/09/16 06:45:08;;;;;;;15.10;7.85;;;18.00;99.90;;;18.42;94.95;100785.34;5108857;27;20634;-69
2021/09/16 06:47:35;;;;;;;17.63;7.38;;;18.00;99.90;;;18.39;94.28;100789.97;5101737;28;20194;-70
2021/09/16 06:50:04;;;;;;;16.67;7.40;;;18.00;99.90;;;18.37;94.93;100794.56;5104996;28;20686;-71
2021/09/16 06:52:31;;;;;;;14.57;6.78;;;17.90;99.90;;;18.37;94.42;100797.22;5093487;28;20214;-69
2021/09/16 06:54:58;;;;;;;16.40;7.35;;;17.90;99.90;;;18.36;94.22;100803.44;5103850;28;20682;-70
2021/09/16 06:57:25;;;;;;;15.63;7.32;;;17.90;99.90;;;18.35;94.26;100794.63;5105990;28;20724;-71
2021/09/16 06:59:52;;;;;;;18.83;8.05;;;18.00;99.90;;;18.35;94.66;100796.47;5098395;28;20674;-71
2021/09/16 07:02:19;;;;;;;15.02;7.40;;;17.90;99.90;;;18.38;94.47;100798.91;5101010;28;20214;-70
2021/09/16 07:04:46;;;;;;;15.27;7.63;;;17.90;99.90;;;18.41;94.27;100801.38;5103251;28;20194;-69
2021/09/16 07:07:14;;;;;;;14.85;7.18;;;18.00;99.90;;;18.41;94.14;100810.16;5104846;27;20199;-71
2021/09/16 07:09:41;;;;;;;14.52;7.28;;;18.00;99.90;;;18.40;93.96;100807.63;5093216;28;20207;-69
2021/09/16 07:12:08;;;;;;;15.38;6.50;;;18.00;99.90;;;18.38;93.86;100818.31;5095215;28;20687;-71
2021/09/16 07:14:34;;;;;;;13.55;6.35;;;18.00;99.90;;;18.40;93.88;100819.06;5101294;28;20837;-71
2021/09/16 07:17:01;;;;;;;14.85;6.70;;;18.00;99.90;;;18.44;93.79;100815.25;5102974;28;20195;-69
2021/09/16 07:19:29;;;;;;;16.00;6.43;;;18.00;99.90;;;18.45;93.24;100811.63;5115285;27;20199;-71
2021/09/16 07:21:56;;;;;;;16.17;6.63;;;18.10;99.90;;;18.50;93.21;100814.81;5102571;28;20210;-70
2021/09/16 07:24:25;;;;;;;13.85;5.55;;;18.10;99.90;;;18.52;92.87;100820.06;5101520;28;20196;-71
2021/09/16 07:26:52;;;;;;;12.40;5.13;;;18.10;99.90;;;18.55;92.64;100825.13;5111367;28;20562;-71
2021/09/16 07:29:19;;;;;;;12.98;5.45;;;18.20;99.90;;;18.57;92.58;100815.28;5093893;28;20555;-71
2021/09/16 07:31:47;;;;;;;12.10;5.25;;;18.20;99.90;;;18.58;92.13;100822.28;5098678;28;20272;-70
2021/09/16 07:34:14;;;;;;;12.10;4.78;;;18.20;99.90;;;18.57;91.73;100820.59;5093123;28;22296;-72
2021/09/16 07:36:43;;;;;;;12.25;5.07;;;18.20;99.90;;;18.57;91.24;100825.88;5100660;28;20245;-72
2021/09/16 07:39:11;;;;;;;11.85;4.90;;;18.20;99.90;;;18.59;90.79;100823.94;5107769;28;20656;-69
2021/09/16 07:41:39;;;;;;;13.35;4.50;;;18.20;99.90;;;18.60;90.61;100825.66;5100349;28;20210;-71
2021/09/16 07:44:07;;;;;;;10.38;4.20;;;18.20;99.90;;;18.60;90.16;100826.50;5107441;28;20259;-72
2021/09/16 07:46:34;;;;;;;9.13;3.90;;;18.20;99.90;;;18.61;89.94;100828.22;5104795;27;20193;-71
2021/09/16 07:49:01;;;;;;;11.82;4.03;;;18.30;99.90;;;18.61;89.68;100822.91;5112000;27;20194;-71
2021/09/16 07:51:28;;;;;;;9.60;3.97;;;18.30;99.90;;;18.64;89.88;100827.13;5102550;28;20717;-72
2021/09/16 07:53:55;;;;;;;10.30;3.90;;;18.30;99.90;;;18.68;89.41;100828.63;5108543;28;20244;-69
2021/09/16 07:56:22;;;;;;;9.25;4.00;;;18.40;99.90;;;18.70;89.44;100830.22;5098501;27;20245;-71
2021/09/16 07:58:50;;;;;;;9.45;3.83;;;18.40;99.90;;;18.73;88.99;100829.16;5101054;28;20202;-71
2021/09/16 08:01:17;;;;;;;11.68;4.05;;;18.40;99.90;;;18.77;88.66;100828.84;5103988;28;20223;-71
2021/09/16 08:03:44;;;;;;;11.95;3.75;;;18.50;99.90;;;18.81;88.44;100829.47;5096699;28;20659;-70
2021/09/16 08:06:10;;;;;;;9.80;3.65;;;18.50;99.90;;;18.83;88.23;100838.19;5101525;28;20192;-68
2021/09/16 08:08:37;;;;;;;9.00;3.78;;;18.50;99.90;;;18.87;88.58;100833.50;5103208;27;20190;-71
2021/09/16 08:11:04;;;;;;;10.32;4.05;;;18.60;99.90;;;18.88;87.86;100836.06;5109250;28;20226;-70
2021/09/16 08:13:31;;;;;;;13.15;3.35;;;18.60;99.90;;;18.89;87.99;100845.69;5105670;28;20195;-71
2021/09/16 08:15:59;;;;;;;10.20;3.20;;;18.60;99.90;;;18.88;87.42;100844.00;5096777;28;20195;-71
2021/09/16 08:18:26;;;;;;;8.60;3.65;;;18.60;99.90;;;18.84;86.46;100839.88;5096430;27;20188;-72
2021/09/16 08:20:53;;;;;;;11.60;4.35;;;18.60;99.90;;;18.83;85.73;100840.84;5103170;27;20194;-72
2021/09/16 08:23:22;;;;;;;8.00;3.05;;;18.60;99.90;;;18.84;85.46;100844.34;5104103;28;20361;-72
2021/09/16 08:25:49;;;;;;;8.27;2.95;;;18.60;99.90;;;18.83;84.86;100835.53;5100649;28;20191;-71
2021/09/16 08:28:17;;;;;;;8.60;3.40;;;18.60;99.90;;;18.85;84.39;100844.22;5103202;28;20194;-72
2021/09/16 08:30:45;;;;;;;12.60;4.47;;;18.60;99.90;;;18.88;84.42;100836.06;5107211;28;20211;-71
2021/09/16 08:33:15;;;;;;;9.68;3.38;;;18.60;99.90;;;18.89;84.25;100851.00;5106918;27;20210;-71
2021/09/16 08:35:43;;;;;;;12.35;4.85;;;18.60;99.90;;;18.88;83.89;100841.38;5097724;27;20195;-71
2021/09/16 08:38:10;;;;;;;9.18;3.35;;;18.60;99.90;;;18.89;83.71;100851.00;5104212;27;20962;-71
2021/09/16 08:40:37;;;;;;;7.85;2.92;;;18.60;99.90;;;18.87;83.27;100842.31;5095934;28;20191;-71
2021/09/16 08:43:04;;;;;;;6.40;2.45;;;18.60;99.90;;;18.88;83.25;100840.50;5114818;27;20226;-70
2021/09/16 08:45:32;;;;;;;17.55;7.35;;;18.50;99.90;;;18.85;83.14;100840.72;5104228;27;20198;-71
2021/09/16 08:47:59;;;;;;;7.15;2.65;;;18.50;99.90;;;18.84;82.48;100839.88;5110244;28;20203;-72
2021/09/16 08:50:30;;;;;;;9.75;2.70;;;18.50;99.90;;;18.88;82.14;100851.97;5108549;28;20218;-71
2021/09/16 08:52:58;;;;;;;10.00;3.05;;;18.60;99.90;;;18.93;81.65;100854.28;5091183;28;20226;-71
2021/09/16 08:55:25;;;;;;;6.75;2.35;;;18.60;99.90;;;18.95;81.28;100852.38;5099445;28;20203;-72
2021/09/16 08:57:57;;;;;;;7.18;2.17;;;18.60;99.90;;;18.91;81.15;100858.84;5104117;28;20198;-72
2021/09/16 09:00:26;;;;;;;9.13;3.45;;;18.60;99.90;;;18.85;80.69;100852.19;5104641;28;20191;-71
2021/09/16 09:02:54;;;;;;;13.05;5.05;;;18.50;99.90;;;18.83;81.03;100867.34;5093396;28;20219;-71
2021/09/16 09:05:23;;;;;;;8.93;2.80;;;18.40;99.90;;;18.79;81.23;100863.22;5095179;28;20723;-70
2021/09/16 09:07:55;;;;;;;7.70;2.70;;;18.40;99.90;;;18.77;81.56;100859.84;5104547;27;20196;-70
2021/09/16 09:10:36;;;;;;;10.35;3.17;;;18.40;99.90;;;18.76;81.77;100858.13;5101028;27;20218;-70
2021/09/16 09:13:05;;;;;;;6.70;2.30;;;18.40;99.90;;;18.79;81.53;100852.59;5096450;28;20222;-70
2021/09/16 09:15:33;;;;;;;8.68;3.58;;;18.40;99.90;;;18.82;81.83;100852.41;5097858;27;20214;-72
2021/09/16 09:18:10;;;;;;;7.07;2.17;;;18.40;99.90;;;18.85;81.05;100862.81;5096115;28;20191;-72
2021/09/16 09:20:55;;;;;;;5.68;1.80;;;18.50;99.90;;;18.82;80.32;100862.16;5098876;28;20198;-70
2021/09/16 09:23:31;;;;;;;7.30;1.90;;;18.40;99.90;;;18.78;79.28;100861.53;5093542;28;20630;-72
2021/09/16 09:25:58;;;;;;;7.00;1.90;;;18.40;99.90;;;18.71;78.57;100860.25;5104421;28;20182;-70
2021/09/16 09:28:33;;;;;;;7.00;2.28;;;18.30;99.90;;;18.66;78.67;100862.34;5115116;27;20201;-71
2021/09/16 09:31:15;;;;;;;11.48;5.10;;;18.30;99.90;;;18.63;78.47;100859.91;5105879;28;20230;-71
2021/09/16 09:33:42;;;;;;;8.75;2.63;;;18.30;99.90;;;18.65;78.43;100868.63;5094905;28;20187;-70
2021/09/16 09:36:13;;;;;;;7.30;2.33;;;18.20;99.90;;;18.62;78.02;100867.03;5107637;28;20187;-71
2021/09/16 09:38:56;;;;;;;5.53;1.90;;;18.20;99.90;;;18.61;77.92;100869.78;5093880;28;20196;-71
2021/09/16 09:41:30;;;;;;;8.20;2.10;;;18.20;99.90;;;18.60;77.59;100868.91;5106228;28;20557;-70
2021/09/16 09:44:15;;;;;;;7.07;1.80;;;18.20;99.90;;;18.64;77.53;100865.13;5109163;28;20204;-72
2021/09/16 09:46:50;;;;;;;6.05;1.65;;;18.20;99.90;;;18.71;77.38;100866.41;5106794;28;20187;-72
2021/09/16 09:49:22;;;;;;;7.63;2.10;;;18.30;99.90;;;18.84;77.14;100869.03;5106628;28;20264;-72
2021/09/16 09:51:52;;;;;;;7.70;1.70;;;18.50;99.90;;;18.93;76.37;100863.13;5106602;28;20260;-70
2021/09/16 09:54:26;;;;;;;5.75;1.85;;;18.60;99.90;;;18.92;74.69;100868.53;5106737;28;20227;-70
2021/09/16 09:57:11;;;;;;;6.43;1.70;;;18.60;99.90;;;18.89;74.06;100871.41;5096645;28;20210;-70
2021/09/16 09:59:59;;;;;;;7.47;1.60;;;18.60;99.90;;;18.89;73.65;100874.06;5108506;28;20203;-73
2021/09/16 10:02:30;;;;;;;5.78;1.45;;;18.60;99.90;;;18.92;73.55;100879.13;5107547;28;20222;-72
2021/09/16 10:04:58;;;;;;;7.88;1.65;;;18.70;99.90;;;18.95;73.40;100863.88;5102035;28;20201;-71